Startpagina
METAR-TAF:

METAR-TAF

Vliegvelden :

San Andrés, Colombia

breedte: 12-35N, lengte: 081-43W, hoogte: 1 m

Actueel weer

Dit bericht is 23 minuten geleden gemaakt, om 16:00 UTC
Wind 12 kt uit het noordoosten
Temperatuur 30°C
Vochtigheid 66%
Druk 1018 hPa
Zicht 10 km of meer
Weinig wolken op 1800 ft

METAR: SKSP 281600Z 04012KT 9999 FEW018 30/23 A3005

Tijdstip: 11:23 (16:23 UTC)

Verwachting

Dit bericht is 5 uur en het 53 minuten geleden gemaakt, om 10:30 UTC
Verwachting geldig van 28 om 12 UTC tot 29 om 12 UTC
Wind 8 kt uit het oosten
Zicht 10 km of meer
Weinig wolken op 1700 ft

TAF: SKSP 281030Z 2812/2912 08008KT 9999 FEW017 TX31/2819Z TN26/2910Z

Waarnemingen en weersverwachtingen van meer dan 4000 vliegvelden (METAR en TAF).

De beschikbare stations zijn de gele en rode punten op de kaart.

Ga met uw muis naar het station om de naam te zien.

Klik dan om waarnemingen en weersverwachtingen te zien.

kaart wijzigen: klik op de groene knoppen met een zwart kruis om in te zoomen, op de groene knop met een streepje om uit te zoomen of op de groene pijlen voor aangrenzende kaarten.


METAR-TAF: